createdAt,value
2023-01-12T00:01:58.652Z,62.72
2023-01-12T00:04:26.971Z,63.76
2023-01-12T00:06:55.153Z,60.87
2023-01-12T00:09:23.226Z,58.75
2023-01-12T00:11:51.609Z,58.27
2023-01-12T00:14:19.879Z,59.43
2023-01-12T00:16:47.880Z,62.78
2023-01-12T00:19:37.043Z,63.60
2023-01-12T00:22:12.488Z,62.19
2023-01-12T00:24:44.172Z,61.29
2023-01-12T00:27:15.750Z,58.28
2023-01-12T00:29:44.410Z,57.25
2023-01-12T00:32:24.621Z,59.25
2023-01-12T00:35:13.386Z,62.49
2023-01-12T00:37:41.437Z,63.39
2023-01-12T00:40:10.533Z,62.44
2023-01-12T00:43:15.690Z,58.90
2023-01-12T00:45:43.706Z,57.55
2023-01-12T00:48:12.837Z,59.77
2023-01-12T00:50:40.911Z,63.24
2023-01-12T00:53:08.980Z,63.89
2023-01-12T00:55:37.220Z,62.39
2023-01-12T00:58:05.739Z,60.15
2023-01-12T01:00:33.809Z,57.72
2023-01-12T01:03:02.041Z,57.70
2023-01-12T01:05:48.734Z,58.52
2023-01-12T01:08:17.375Z,63.00
2023-01-12T01:10:46.881Z,64.16
2023-01-12T01:13:14.869Z,62.67
2023-01-12T01:15:47.223Z,60.85
2023-01-12T01:18:15.599Z,57.88
2023-01-12T01:20:47.160Z,57.11
2023-01-12T01:23:15.227Z,57.97
2023-01-12T01:25:43.297Z,60.48
2023-01-12T01:28:30.233Z,64.20
2023-01-12T01:31:07.251Z,65.46
2023-01-12T01:33:37.403Z,62.44
2023-01-12T01:36:06.080Z,60.36
2023-01-12T01:38:34.577Z,57.70
2023-01-12T01:41:03.403Z,56.99
2023-01-12T01:44:06.593Z,59.38
2023-01-12T01:46:44.276Z,62.53
2023-01-12T01:49:33.112Z,63.56
2023-01-12T01:52:05.360Z,62.13
2023-01-12T01:54:42.976Z,60.56
2023-01-12T01:57:13.304Z,58.01
2023-01-12T01:59:47.413Z,57.06
2023-01-12T02:02:35.431Z,58.16
2023-01-12T02:05:03.938Z,61.77
2023-01-12T02:07:33.856Z,63.71
2023-01-12T02:10:02.640Z,62.39
2023-01-12T02:12:49.550Z,61.17
2023-01-12T02:15:37.296Z,57.69
2023-01-12T02:18:20.815Z,55.88
2023-01-12T02:20:57.755Z,57.17
2023-01-12T02:23:49.521Z,58.85
2023-01-12T02:26:37.148Z,62.93
2023-01-12T02:29:28.654Z,65.61
2023-01-12T02:32:19.768Z,63.71
2023-01-12T02:35:10.884Z,61.17
2023-01-12T02:38:10.506Z,57.02
2023-01-12T02:40:59.542Z,56.08
2023-01-12T02:43:30.368Z,57.74
2023-01-12T02:46:13.274Z,59.06
2023-01-12T02:48:59.927Z,63.08
2023-01-12T02:51:34.414Z,65.66
2023-01-12T02:54:11.107Z,64.44
2023-01-12T02:56:46.273Z,62.67
2023-01-12T02:59:21.912Z,58.35
2023-01-12T03:01:59.707Z,56.02
2023-01-12T03:04:30.297Z,57.65
2023-01-12T03:06:58.477Z,59.36
2023-01-12T03:09:45.569Z,62.37
2023-01-12T03:12:20.424Z,65.19
2023-01-12T03:14:51.600Z,63.66
2023-01-12T03:17:32.060Z,62.25
2023-01-12T03:20:24.606Z,57.88
2023-01-12T03:22:58.709Z,55.95
2023-01-12T03:25:31.509Z,57.08
2023-01-12T03:28:03.824Z,58.90
2023-01-12T03:30:37.795Z,62.62
2023-01-12T03:33:07.629Z,65.35
2023-01-12T03:35:41.105Z,63.90
2023-01-12T03:38:24.533Z,61.75
2023-01-12T03:41:08.921Z,57.80
2023-01-12T03:44:05.111Z,55.67
2023-01-12T03:46:54.630Z,56.28
2023-01-12T03:49:33.721Z,58.17
2023-01-12T03:52:22.575Z,62.67
2023-01-12T03:54:54.059Z,65.26
2023-01-12T03:57:22.812Z,63.45
2023-01-12T03:59:50.997Z,61.50
2023-01-12T04:02:37.617Z,57.63
2023-01-12T04:05:08.539Z,55.93
2023-01-12T04:07:36.699Z,56.68
2023-01-12T04:10:05.569Z,59.15
2023-01-12T04:12:33.667Z,62.34
2023-01-12T04:15:20.603Z,64.14
2023-01-12T04:17:48.653Z,63.00
2023-01-12T04:20:16.731Z,61.10
2023-01-12T04:22:49.604Z,57.73
2023-01-12T04:25:36.483Z,56.29
2023-01-12T04:28:04.999Z,58.38
2023-01-12T04:30:51.887Z,59.34
2023-01-12T04:33:20.099Z,62.90
2023-01-12T04:35:48.121Z,64.91
2023-01-12T04:38:18.192Z,63.09
2023-01-12T04:40:46.446Z,61.71
2023-01-12T04:43:14.418Z,58.75
2023-01-12T04:45:43.802Z,56.81
2023-01-12T04:48:30.732Z,58.46
2023-01-12T04:51:00.912Z,60.65
2023-01-12T04:53:48.401Z,63.92
2023-01-12T04:56:16.555Z,65.27
2023-01-12T04:58:44.935Z,63.22
2023-01-12T05:01:16.445Z,61.36
2023-01-12T05:03:45.631Z,58.06
2023-01-12T05:06:13.947Z,56.51
2023-01-12T05:09:01.231Z,58.11
2023-01-12T05:11:29.797Z,59.92
2023-01-12T05:13:58.069Z,63.22
2023-01-12T05:16:26.243Z,64.44
2023-01-12T05:19:13.430Z,62.27
2023-01-12T05:21:41.437Z,60.09
2023-01-12T05:24:09.572Z,57.76
2023-01-12T05:26:37.770Z,57.12
2023-01-12T05:29:05.921Z,58.07
2023-01-12T05:31:35.123Z,59.71
2023-01-12T05:34:03.493Z,62.69
2023-01-12T05:36:31.804Z,64.85
2023-01-12T05:39:19.720Z,62.69
2023-01-12T05:42:10.648Z,60.49
2023-01-12T05:44:38.732Z,57.42
2023-01-12T05:47:06.859Z,57.81
2023-01-12T05:49:34.844Z,59.64
2023-01-12T05:52:03.202Z,61.76
2023-01-12T05:54:31.891Z,64.35
2023-01-12T05:57:00.064Z,64.85
2023-01-12T05:59:28.240Z,62.64
2023-01-12T06:01:56.237Z,61.14
2023-01-12T06:04:25.438Z,58.47
2023-01-12T06:07:16.520Z,57.46
2023-01-12T06:09:44.689Z,58.83
2023-01-12T06:12:41.961Z,59.82
2023-01-12T06:15:10.428Z,63.81
2023-01-12T06:17:38.495Z,64.99
2023-01-12T06:20:07.710Z,63.00
2023-01-12T06:22:36.095Z,60.75
2023-01-12T06:25:04.669Z,57.90
2023-01-12T06:27:39.571Z,57.11
2023-01-12T06:30:12.576Z,58.92
2023-01-12T06:32:41.885Z,62.27
2023-01-12T06:35:18.663Z,64.26
2023-01-12T06:37:48.061Z,62.88
2023-01-12T06:40:16.630Z,60.71
2023-01-12T06:42:44.707Z,58.23
2023-01-12T06:45:13.080Z,58.19
2023-01-12T06:47:49.561Z,60.27
2023-01-12T06:50:17.984Z,61.99
2023-01-12T06:52:46.109Z,64.65
2023-01-12T06:55:16.417Z,64.55
2023-01-12T06:58:04.771Z,61.30
2023-01-12T07:00:33.070Z,58.77
2023-01-12T07:03:20.589Z,58.95
2023-01-12T07:05:48.656Z,60.56
2023-01-12T07:08:19.290Z,63.58
2023-01-12T07:10:47.660Z,63.26
2023-01-12T07:13:15.647Z,61.60
2023-01-12T07:15:44.157Z,59.55
2023-01-12T07:18:12.590Z,57.61
2023-01-12T07:20:40.594Z,58.48
2023-01-12T07:23:27.268Z,60.72
2023-01-12T07:25:57.797Z,63.55
2023-01-12T07:28:25.887Z,63.11
2023-01-12T07:30:59.411Z,60.57
2023-01-12T07:33:27.641Z,58.42
2023-01-12T07:36:00.024Z,58.46
2023-01-12T07:38:33.324Z,60.90
2023-01-12T07:41:02.869Z,62.58
2023-01-12T07:43:33.781Z,64.78
2023-01-12T07:46:02.135Z,62.52
2023-01-12T07:48:49.040Z,60.77
2023-01-12T07:51:17.835Z,58.30
2023-01-12T07:53:48.253Z,58.88
2023-01-12T07:56:16.533Z,60.52
2023-01-12T07:58:47.978Z,63.11
2023-01-12T08:01:16.741Z,63.15
2023-01-12T08:03:45.569Z,61.11
2023-01-12T08:06:13.738Z,58.12
2023-01-12T08:09:00.998Z,58.74
2023-01-12T08:11:47.398Z,60.88
2023-01-12T08:14:33.752Z,63.13
2023-01-12T08:17:02.595Z,62.59
2023-01-12T08:19:55.785Z,60.49
2023-01-12T08:22:30.349Z,58.20
2023-01-12T08:25:09.209Z,58.48
2023-01-12T08:27:41.111Z,60.37
2023-01-12T08:30:10.186Z,62.79
2023-01-12T08:32:39.066Z,62.64
2023-01-12T08:35:08.293Z,59.82
2023-01-12T08:37:39.745Z,57.91
2023-01-12T08:40:08.983Z,58.72
2023-01-12T08:42:37.101Z,60.78
2023-01-12T08:45:09.396Z,63.00
2023-01-12T08:47:38.123Z,62.24
2023-01-12T08:50:07.568Z,60.20
2023-01-12T08:52:36.056Z,58.06
2023-01-12T08:55:04.605Z,58.42
2023-01-12T08:57:32.906Z,60.48
2023-01-12T09:00:01.094Z,61.60
2023-01-12T09:02:29.915Z,64.20
2023-01-12T09:04:58.156Z,63.06
2023-01-12T09:07:26.432Z,60.81
2023-01-12T09:09:54.497Z,58.14
2023-01-12T09:12:24.464Z,58.60
2023-01-12T09:14:54.184Z,60.67
2023-01-12T09:17:23.226Z,62.61
2023-01-12T09:19:51.625Z,63.57
2023-01-12T09:22:19.771Z,61.08
2023-01-12T09:24:48.055Z,58.67
2023-01-12T09:27:16.426Z,59.04
2023-01-12T09:29:44.496Z,60.75
2023-01-12T09:32:12.679Z,62.76
2023-01-12T09:34:41.019Z,62.35
2023-01-12T09:37:09.227Z,60.05
2023-01-12T09:39:56.266Z,57.88
2023-01-12T09:43:09.170Z,58.38
2023-01-12T09:45:56.113Z,60.88
2023-01-12T09:48:25.514Z,62.89
2023-01-12T09:51:10.031Z,61.75
2023-01-12T09:53:40.561Z,59.60
2023-01-12T09:56:08.641Z,57.51
2023-01-12T09:59:08.345Z,58.78
2023-01-12T10:01:59.475Z,60.76
2023-01-12T10:04:32.161Z,63.24
2023-01-12T10:07:00.360Z,62.10
2023-01-12T10:09:28.999Z,60.25
2023-01-12T10:12:29.532Z,57.76
2023-01-12T10:14:58.106Z,58.41
2023-01-12T10:17:41.992Z,60.46
2023-01-12T10:20:34.102Z,61.82
2023-01-12T10:23:12.502Z,63.66
2023-01-12T10:25:45.964Z,61.21
2023-01-12T10:28:25.896Z,58.86
2023-01-12T10:30:56.424Z,58.66
2023-01-12T10:33:27.644Z,60.51
2023-01-12T10:36:00.815Z,61.97
2023-01-12T10:38:36.567Z,63.78
2023-01-12T10:41:10.578Z,62.76
2023-01-12T10:43:42.561Z,60.24
2023-01-12T10:46:19.651Z,57.80
2023-01-12T10:48:49.967Z,59.02
2023-01-12T10:51:30.513Z,59.79
2023-01-12T10:54:23.278Z,62.33
2023-01-12T10:56:59.177Z,63.88
2023-01-12T10:59:54.760Z,60.96
2023-01-12T11:02:26.435Z,57.94
2023-01-12T11:04:57.934Z,58.41
2023-01-12T11:07:50.377Z,59.95
2023-01-12T11:10:21.247Z,62.26
2023-01-12T11:12:59.106Z,63.88
2023-01-12T11:15:29.156Z,62.18
2023-01-12T11:18:03.162Z,59.07
2023-01-12T11:20:34.522Z,58.54
2023-01-12T11:23:05.270Z,60.48
2023-01-12T11:25:40.234Z,62.00
2023-01-12T11:28:39.613Z,63.32
2023-01-12T11:31:19.853Z,60.77
2023-01-12T11:33:55.469Z,58.51
2023-01-12T11:36:29.403Z,58.71
2023-01-12T11:39:06.684Z,60.44
2023-01-12T11:42:16.141Z,62.75
2023-01-12T11:45:06.133Z,63.71
2023-01-12T11:47:46.336Z,62.37
2023-01-12T11:50:21.853Z,58.78
2023-01-12T11:52:50.579Z,58.35
2023-01-12T11:55:42.414Z,60.09
2023-01-12T11:58:33.823Z,61.97
2023-01-12T12:01:26.803Z,64.15
2023-01-12T12:04:08.675Z,62.31
2023-01-12T12:07:02.177Z,60.13
2023-01-12T12:09:58.472Z,57.47
2023-01-12T12:12:41.908Z,57.97
2023-01-12T12:15:25.438Z,59.48
2023-01-12T12:18:14.479Z,61.49
2023-01-12T12:20:43.087Z,63.83
2023-01-12T12:23:36.839Z,63.69
2023-01-12T12:26:38.477Z,61.42
2023-01-12T12:29:21.335Z,56.52
2023-01-12T12:32:15.953Z,56.70
2023-01-12T12:34:56.410Z,58.72
2023-01-12T12:37:35.401Z,59.41
2023-01-12T12:40:30.711Z,62.03
2023-01-12T12:43:37.916Z,63.83
2023-01-12T12:46:21.277Z,62.24
2023-01-12T12:49:12.982Z,57.43
2023-01-12T12:51:41.849Z,57.06
2023-01-12T12:54:18.324Z,58.35
2023-01-12T12:56:47.850Z,59.92
2023-01-12T12:59:34.543Z,59.84
2023-01-12T13:02:53.259Z,60.91
2023-01-12T13:05:47.312Z,63.60
2023-01-12T13:08:27.403Z,62.06
2023-01-12T13:10:58.959Z,58.33
2023-01-12T13:13:29.232Z,58.01
2023-01-12T13:16:24.145Z,59.26
2023-01-12T13:18:52.385Z,61.34
2023-01-12T13:21:26.820Z,62.81
2023-01-12T13:24:23.663Z,61.54
2023-01-12T13:26:53.981Z,58.86
2023-01-12T13:29:28.175Z,58.96
2023-01-12T13:32:34.147Z,60.52
2023-01-12T13:35:03.517Z,62.23
2023-01-12T13:37:49.071Z,63.90
2023-01-12T13:40:18.949Z,62.04
2023-01-12T13:43:08.174Z,60.05
2023-01-12T13:45:37.307Z,57.25
2023-01-12T13:48:07.638Z,57.99
2023-01-12T13:50:37.138Z,59.31
2023-01-12T13:53:28.837Z,62.25
2023-01-12T13:56:00.002Z,63.49
2023-01-12T13:58:41.310Z,61.98
2023-01-12T14:01:24.175Z,58.58
2023-01-12T14:04:05.049Z,57.78
2023-01-12T14:07:03.659Z,59.25
2023-01-12T14:09:50.628Z,61.36
2023-01-12T14:12:37.896Z,63.24
2023-01-12T14:15:42.025Z,62.86
2023-01-12T14:18:15.084Z,60.58
2023-01-12T14:20:52.089Z,57.35
2023-01-12T14:23:21.763Z,57.29
2023-01-12T14:26:14.706Z,59.67
2023-01-12T14:29:01.269Z,61.84
2023-01-12T14:31:53.321Z,63.65
2023-01-12T14:34:35.397Z,62.36
2023-01-12T14:37:08.067Z,59.02
2023-01-12T14:39:56.103Z,58.11
2023-01-12T14:42:45.368Z,59.93
2023-01-12T14:45:50.802Z,62.24
2023-01-12T14:48:30.850Z,63.99
2023-01-12T14:51:14.386Z,62.51
2023-01-12T14:53:49.091Z,58.43
2023-01-12T14:56:35.328Z,58.54
2023-01-12T14:59:16.921Z,60.26
2023-01-12T15:01:45.022Z,62.00
2023-01-12T15:04:21.014Z,63.92
2023-01-12T15:07:01.413Z,63.12
2023-01-12T15:09:33.612Z,59.64
2023-01-12T15:12:41.989Z,57.52
2023-01-12T15:15:49.890Z,58.62
2023-01-12T15:18:38.139Z,61.46
2023-01-12T15:21:25.012Z,63.44
2023-01-12T15:24:11.865Z,61.91
2023-01-12T15:26:40.648Z,58.88
2023-01-12T15:29:09.029Z,58.48
2023-01-12T15:31:39.009Z,60.34
2023-01-12T15:34:10.792Z,61.94
2023-01-12T15:36:38.875Z,63.51
2023-01-12T15:39:06.940Z,62.42
2023-01-12T15:41:54.982Z,59.90
2023-01-12T15:44:23.935Z,57.38
2023-01-12T15:46:52.938Z,58.21
2023-01-12T15:49:21.666Z,59.91
2023-01-12T15:51:51.060Z,61.79
2023-01-12T15:54:20.692Z,63.15
2023-01-12T15:56:48.836Z,62.39
2023-01-12T15:59:16.854Z,59.35
2023-01-12T16:01:48.133Z,57.21
2023-01-12T16:04:42.538Z,58.10
2023-01-12T16:07:11.861Z,60.37
2023-01-12T16:09:41.363Z,62.11
2023-01-12T16:12:10.510Z,63.22
2023-01-12T16:14:39.253Z,62.16
2023-01-12T16:17:07.400Z,58.72
2023-01-12T16:19:41.519Z,57.81
2023-01-12T16:22:17.975Z,59.73
2023-01-12T16:24:46.473Z,61.84
2023-01-12T16:27:15.267Z,63.46
2023-01-12T16:29:43.729Z,62.33
2023-01-12T16:32:12.627Z,60.12
2023-01-12T16:34:41.323Z,58.77
2023-01-12T16:37:19.121Z,60.08
2023-01-12T16:40:06.661Z,62.30
2023-01-12T16:42:34.648Z,63.90
2023-01-12T16:45:03.538Z,62.66
2023-01-12T16:47:31.977Z,60.79
2023-01-12T16:50:00.169Z,58.19
2023-01-12T16:52:28.431Z,59.34
2023-01-12T16:54:56.422Z,61.33
2023-01-12T16:57:24.572Z,63.16
2023-01-12T16:59:52.635Z,62.55
2023-01-12T17:02:21.397Z,60.41
2023-01-12T17:04:52.550Z,58.75
2023-01-12T17:07:21.152Z,59.28
2023-01-12T17:10:08.853Z,61.17
2023-01-12T17:12:37.158Z,63.19
2023-01-12T17:15:06.068Z,62.20
2023-01-12T17:17:35.858Z,60.24
2023-01-12T17:20:05.373Z,58.09
2023-01-12T17:22:34.437Z,58.86
2023-01-12T17:25:03.160Z,60.51
2023-01-12T17:27:31.320Z,62.71
2023-01-12T17:29:59.592Z,62.92
2023-01-12T17:32:27.837Z,60.09
2023-01-12T17:34:56.048Z,58.15
2023-01-12T17:37:43.190Z,58.09
2023-01-12T17:40:12.067Z,60.92
2023-01-12T17:43:09.814Z,62.89
2023-01-12T17:45:45.330Z,62.12
2023-01-12T17:48:19.690Z,60.88
2023-01-12T17:50:48.476Z,58.37
2023-01-12T17:53:19.159Z,57.89
2023-01-12T17:55:49.204Z,60.32
2023-01-12T17:58:37.274Z,62.65
2023-01-12T18:01:14.576Z,62.18
2023-01-12T18:03:43.159Z,59.96
2023-01-12T18:06:15.049Z,57.71
2023-01-12T18:08:48.490Z,59.28
2023-01-12T18:11:19.536Z,61.70
2023-01-12T18:13:48.178Z,63.46
2023-01-12T18:16:17.013Z,62.65
2023-01-12T18:18:45.486Z,60.73
2023-01-12T18:21:16.198Z,58.12
2023-01-12T18:23:44.859Z,59.14
2023-01-12T18:26:16.345Z,61.04
2023-01-12T18:28:45.250Z,63.31
2023-01-12T18:31:16.267Z,62.94
2023-01-12T18:33:46.312Z,60.64
2023-01-12T18:36:17.953Z,60.30
2023-01-12T18:38:46.244Z,58.22
2023-01-12T18:41:54.468Z,58.97
2023-01-12T18:44:24.337Z,61.09
2023-01-12T18:47:16.901Z,63.65
2023-01-12T18:49:49.420Z,62.72
2023-01-12T18:52:55.137Z,60.54
2023-01-12T18:55:41.989Z,57.80
2023-01-12T18:58:10.222Z,58.79
2023-01-12T19:00:38.622Z,61.18
2023-01-12T19:03:26.230Z,63.61
2023-01-12T19:06:22.209Z,62.39
2023-01-12T19:09:10.822Z,60.83
2023-01-12T19:11:59.095Z,57.90
2023-01-12T19:15:05.736Z,59.13
2023-01-12T19:17:37.222Z,61.91
2023-01-12T19:20:08.970Z,64.36
2023-01-12T19:22:57.484Z,63.48
2023-01-12T19:25:46.056Z,60.54
2023-01-12T19:28:32.790Z,58.72
2023-01-12T19:31:20.727Z,59.47
2023-01-12T19:33:49.082Z,61.34
2023-01-12T19:36:17.343Z,63.97
2023-01-12T19:38:50.717Z,63.30
2023-01-12T19:41:39.394Z,61.03
2023-01-12T19:44:08.280Z,59.85
2023-01-12T19:46:36.465Z,58.22
2023-01-12T19:49:23.803Z,60.11
2023-01-12T19:51:51.948Z,62.32
2023-01-12T19:54:20.024Z,63.15
2023-01-12T19:56:49.027Z,61.02
2023-01-12T19:59:17.201Z,59.32
2023-01-12T20:01:45.359Z,57.96
2023-01-12T20:04:14.050Z,59.56
2023-01-12T20:21:11.632Z,59.00
2023-01-12T20:23:39.783Z,60.48
2023-01-12T20:26:09.160Z,63.28
2023-01-12T20:28:37.662Z,63.69
2023-01-12T20:31:10.631Z,61.96
2023-01-12T20:33:39.374Z,60.71
2023-01-12T20:36:17.321Z,58.69
2023-01-12T20:38:47.354Z,58.90
2023-01-12T20:41:15.512Z,60.42
2023-01-12T20:43:43.930Z,63.77
2023-01-12T20:46:14.141Z,64.12
2023-01-12T20:48:44.649Z,62.76
2023-01-12T20:51:18.428Z,60.66
2023-01-12T20:53:46.667Z,60.20
2023-01-12T20:56:14.803Z,58.26
2023-01-12T20:58:43.322Z,58.83
2023-01-12T21:01:13.824Z,61.16
2023-01-12T21:03:43.366Z,64.09
2023-01-12T21:06:14.429Z,64.39
2023-01-12T21:08:46.416Z,62.13
2023-01-12T21:11:17.245Z,60.79
2023-01-12T21:13:49.537Z,58.95
2023-01-12T21:16:19.502Z,59.07
2023-01-12T21:18:48.338Z,61.21
2023-01-12T21:21:16.923Z,63.70
2023-01-12T21:23:45.294Z,64.30
2023-01-12T21:26:13.760Z,61.94
2023-01-12T21:29:01.995Z,60.31
2023-01-12T21:31:48.656Z,58.35
2023-01-12T21:34:43.733Z,58.83
2023-01-12T21:37:12.516Z,61.41
2023-01-12T21:39:40.691Z,63.96
2023-01-12T21:42:27.211Z,63.85
2023-01-12T21:44:55.366Z,62.53
2023-01-12T21:47:23.685Z,60.99
2023-01-12T21:49:52.025Z,58.52
2023-01-12T21:52:20.302Z,58.91
2023-01-12T21:54:48.475Z,60.80
2023-01-12T21:57:16.646Z,63.10
2023-01-12T21:59:44.819Z,63.38
2023-01-12T22:02:13.250Z,61.58
2023-01-12T22:04:41.467Z,59.95
2023-01-12T22:07:09.546Z,58.30
2023-01-12T22:09:37.821Z,58.70
2023-01-12T22:12:06.507Z,60.84
2023-01-12T22:14:34.618Z,63.37
2023-01-12T22:17:02.628Z,63.68
2023-01-12T22:19:31.536Z,61.85
2023-01-12T22:22:18.355Z,60.60
2023-01-12T22:24:46.735Z,58.09
2023-01-12T22:27:14.963Z,58.57
2023-01-12T22:30:02.838Z,61.12
2023-01-12T22:32:31.714Z,63.83
2023-01-12T22:35:00.131Z,63.74
2023-01-12T22:37:29.309Z,61.41
2023-01-12T22:39:57.477Z,59.90
2023-01-12T22:42:45.672Z,58.05
2023-01-12T22:45:14.168Z,58.93
2023-01-12T22:47:47.983Z,61.22
2023-01-12T22:50:16.822Z,63.90
2023-01-12T22:53:03.617Z,63.88
2023-01-12T22:55:32.006Z,61.68
2023-01-12T22:58:00.369Z,60.09
2023-01-12T23:00:28.415Z,58.54
2023-01-12T23:03:03.098Z,58.67
2023-01-12T23:05:35.977Z,61.65
2023-01-12T23:08:11.158Z,63.99
2023-01-12T23:10:39.460Z,63.52
2023-01-12T23:13:25.756Z,61.85
2023-01-12T23:15:58.294Z,60.85
2023-01-12T23:18:29.343Z,58.82
2023-01-12T23:21:09.998Z,59.41
2023-01-12T23:23:39.087Z,61.57
2023-01-12T23:26:31.373Z,64.44
2023-01-12T23:29:03.114Z,64.21
2023-01-12T23:31:33.739Z,62.46
2023-01-12T23:34:02.245Z,61.34
2023-01-12T23:36:31.173Z,60.23
2023-01-12T23:39:02.069Z,58.77
2023-01-12T23:41:33.317Z,58.35
2023-01-12T23:44:04.522Z,60.86
2023-01-12T23:46:43.111Z,63.61
2023-01-12T23:49:11.560Z,63.92
2023-01-12T23:51:40.666Z,61.65
2023-01-12T23:54:18.792Z,60.03
2023-01-12T23:56:52.379Z,58.23
2023-01-12T23:59:21.045Z,59.15
